createdAt,value
2023-04-07T00:00:10.731Z,2.10
2023-04-07T00:02:44.355Z,2.10
2023-04-07T00:05:14.535Z,2.70
2023-04-07T00:07:55.124Z,2.30
2023-04-07T00:10:24.451Z,2.30
2023-04-07T00:12:53.594Z,2.30
2023-04-07T00:15:21.994Z,2.30
2023-04-07T00:17:50.483Z,1.10
2023-04-07T00:20:20.499Z,2.70
2023-04-07T00:22:49.225Z,2.60
2023-04-07T00:27:46.512Z,2.20
2023-04-07T00:32:45.482Z,2.10
2023-04-07T00:37:44.505Z,2.10
2023-04-07T00:40:13.592Z,2.00
2023-04-07T00:42:42.492Z,5.40
2023-04-07T00:45:12.852Z,1.90
2023-04-07T00:47:41.627Z,1.90
2023-04-07T00:50:11.313Z,1.90
2023-04-07T00:52:41.052Z,1.70
2023-04-07T00:55:11.414Z,1.60
2023-04-07T01:00:11.047Z,1.50
2023-04-07T01:02:46.905Z,1.40
2023-04-07T01:05:24.672Z,1.60
2023-04-07T01:08:07.468Z,-0.70
2023-04-07T01:10:49.616Z,1.30
2023-04-07T01:13:29.671Z,1.20
2023-04-07T01:16:14.515Z,1.20
2023-04-07T01:18:53.544Z,1.10
2023-04-07T01:21:30.482Z,1.10
2023-04-07T01:24:26.075Z,1.10
2023-04-07T01:27:06.817Z,1.20
2023-04-07T01:29:47.801Z,1.10
2023-04-07T01:32:20.429Z,1.20
2023-04-07T01:34:53.527Z,1.30
2023-04-07T01:37:23.698Z,1.30
2023-04-07T01:39:52.333Z,4.80
2023-04-07T01:42:23.336Z,1.40
2023-04-07T01:44:55.013Z,1.40
2023-04-07T01:47:24.309Z,1.40
2023-04-07T01:49:55.556Z,1.30
2023-04-07T01:52:24.656Z,1.20
2023-04-07T01:57:22.769Z,1.10
2023-04-07T01:59:57.091Z,1.10
2023-04-07T02:05:00.322Z,1.10
2023-04-07T02:07:41.523Z,1.10
2023-04-07T02:10:14.781Z,1.10
2023-04-07T02:12:47.164Z,0.90
2023-04-07T02:15:22.050Z,1.00
2023-04-07T02:17:54.673Z,1.00
2023-04-07T02:20:24.973Z,0.90
2023-04-07T02:22:53.804Z,1.60
2023-04-07T02:25:24.266Z,1.00
2023-04-07T02:27:54.734Z,1.00
2023-04-07T02:30:25.628Z,1.00
2023-04-07T02:32:54.122Z,1.00
2023-04-07T02:35:22.795Z,1.00
2023-04-07T02:37:51.501Z,1.00
2023-04-07T02:40:19.913Z,1.00
2023-04-07T02:42:50.538Z,1.10
2023-04-07T02:47:49.358Z,1.20
2023-04-07T02:50:19.970Z,1.60
2023-04-07T02:52:48.418Z,1.10
2023-04-07T02:55:18.539Z,1.10
2023-04-07T02:57:47.143Z,1.00
2023-04-07T03:00:32.829Z,1.00
2023-04-07T03:03:12.043Z,1.00
2023-04-07T03:05:43.609Z,1.00
2023-04-07T03:08:13.690Z,1.10
2023-04-07T03:10:42.584Z,1.00
2023-04-07T03:13:12.956Z,1.00
2023-04-07T03:15:41.563Z,1.00
2023-04-07T03:18:12.264Z,1.00
2023-04-07T03:20:43.001Z,1.10
2023-04-07T03:23:13.220Z,1.00
2023-04-07T03:25:42.177Z,1.00
2023-04-07T03:30:42.566Z,1.00
2023-04-07T03:33:12.467Z,2.00
2023-04-07T03:35:41.840Z,0.90
2023-04-07T03:40:39.820Z,0.90
2023-04-07T03:43:12.530Z,0.50
2023-04-07T03:45:41.971Z,1.00
2023-04-07T03:48:12.765Z,1.00
2023-04-07T03:50:51.959Z,1.00
2023-04-07T03:53:21.403Z,1.00
2023-04-07T03:55:52.343Z,1.00
2023-04-07T03:58:31.586Z,1.00
2023-04-07T04:01:00.464Z,1.00
2023-04-07T04:03:30.639Z,1.00
2023-04-07T04:08:40.063Z,1.00
2023-04-07T04:11:08.783Z,1.00
2023-04-07T04:13:44.824Z,1.00
2023-04-07T04:16:15.332Z,4.50
2023-04-07T04:18:46.277Z,0.90
2023-04-07T04:21:16.656Z,0.80
2023-04-07T04:26:16.722Z,0.80
2023-04-07T04:28:47.064Z,0.80
2023-04-07T04:31:17.053Z,0.80
2023-04-07T04:33:47.564Z,0.70
2023-04-07T04:36:16.144Z,0.80
2023-04-07T04:38:44.981Z,0.80
2023-04-07T04:41:18.847Z,0.80
2023-04-07T04:43:47.977Z,0.70
2023-04-07T04:46:22.390Z,0.70
2023-04-07T04:48:54.200Z,0.70
2023-04-07T04:51:25.161Z,0.70
2023-04-07T04:53:58.153Z,0.70
2023-04-07T04:56:28.620Z,0.90
2023-04-07T04:58:57.410Z,0.90
2023-04-07T05:04:12.681Z,1.10
2023-04-07T05:06:47.474Z,1.10
2023-04-07T05:09:19.091Z,1.10
2023-04-07T05:11:50.114Z,1.20
2023-04-07T05:14:18.669Z,1.30
2023-04-07T05:16:54.479Z,1.30
2023-04-07T05:19:31.051Z,1.40
2023-04-07T05:22:05.840Z,1.50
2023-04-07T05:24:42.734Z,1.60
2023-04-07T05:29:40.818Z,1.70
2023-04-07T05:32:15.193Z,1.80
2023-04-07T05:34:45.209Z,1.90
2023-04-07T05:37:13.862Z,2.00
2023-04-07T05:39:42.411Z,2.10
2023-04-07T05:42:14.669Z,2.20
2023-04-07T05:44:45.753Z,2.30
2023-04-07T05:47:15.804Z,2.40
2023-04-07T05:49:47.473Z,2.50
2023-04-07T05:52:16.552Z,2.60
2023-04-07T05:54:51.594Z,2.60
2023-04-07T05:57:21.410Z,3.70
2023-04-07T05:59:50.949Z,2.70
2023-04-07T06:02:20.035Z,2.70
2023-04-07T06:04:51.184Z,2.90
2023-04-07T06:07:21.493Z,3.00
2023-04-07T06:09:50.122Z,3.20
2023-04-07T06:12:19.056Z,3.30
2023-04-07T06:14:56.486Z,3.40
2023-04-07T06:17:25.917Z,3.60
2023-04-07T06:19:55.831Z,3.80
2023-04-07T06:22:24.601Z,4.40
2023-04-07T06:24:53.177Z,4.20
2023-04-07T06:27:23.584Z,4.30
2023-04-07T06:29:52.504Z,4.60
2023-04-07T06:32:21.476Z,4.50
2023-04-07T06:34:50.213Z,4.70
2023-04-07T06:37:20.121Z,3.40
2023-04-07T06:39:48.588Z,5.10
2023-04-07T06:42:17.106Z,5.20
2023-04-07T06:44:54.196Z,5.50
2023-04-07T06:47:22.766Z,5.60
2023-04-07T06:52:21.744Z,5.80
2023-04-07T06:57:19.408Z,6.00
2023-04-07T06:59:47.867Z,6.20
2023-04-07T07:02:16.723Z,6.20
2023-04-07T07:07:14.240Z,6.40
2023-04-07T07:09:44.301Z,6.60
2023-04-07T07:12:12.636Z,6.80
2023-04-07T07:14:41.074Z,7.60
2023-04-07T07:17:09.900Z,7.10
2023-04-07T07:19:38.936Z,8.50
2023-04-07T07:22:07.546Z,7.80
2023-04-07T07:24:36.633Z,7.80
2023-04-07T07:27:07.730Z,8.10
2023-04-07T07:29:36.437Z,8.40
2023-04-07T07:34:35.021Z,8.80
2023-04-07T07:37:03.637Z,8.70
2023-04-07T07:39:31.992Z,8.80
2023-04-07T07:42:01.690Z,8.80
2023-04-07T07:44:32.650Z,8.70
2023-04-07T07:49:31.964Z,8.80
2023-04-07T07:52:01.983Z,5.90
2023-04-07T07:54:30.631Z,8.70
2023-04-07T07:56:59.429Z,8.90
2023-04-07T07:59:27.761Z,8.70
2023-04-07T08:01:57.595Z,8.80
2023-04-07T08:04:26.417Z,8.90
2023-04-07T08:06:56.110Z,8.00
2023-04-07T08:09:24.881Z,9.10
2023-04-07T08:11:53.297Z,9.40
2023-04-07T08:14:21.973Z,9.50
2023-04-07T08:16:50.428Z,9.80
2023-04-07T08:19:20.301Z,9.80
2023-04-07T08:21:48.760Z,9.80
2023-04-07T08:24:17.270Z,9.80
2023-04-07T08:26:46.108Z,9.90
2023-04-07T08:29:14.909Z,10.20
2023-04-07T08:31:44.611Z,10.50
2023-04-07T08:34:14.069Z,10.70
2023-04-07T08:36:44.109Z,11.10
2023-04-07T08:41:44.698Z,10.80
2023-04-07T08:44:16.655Z,11.10
2023-04-07T08:46:46.087Z,11.30
2023-04-07T08:49:15.186Z,11.40
2023-04-07T08:51:48.678Z,11.00
2023-04-07T08:54:21.748Z,11.00
2023-04-07T08:59:23.186Z,11.40
2023-04-07T09:06:53.141Z,12.10
2023-04-07T09:09:21.496Z,12.40
2023-04-07T09:11:51.439Z,12.30
2023-04-07T09:14:21.048Z,12.10
2023-04-07T09:19:18.260Z,12.00
2023-04-07T09:21:53.224Z,11.90
2023-04-07T09:24:27.005Z,11.80
2023-04-07T09:27:12.746Z,11.20
2023-04-07T09:29:45.019Z,11.80
2023-04-07T09:32:14.500Z,12.00
2023-04-07T09:34:43.247Z,11.90
2023-04-07T09:37:23.985Z,11.70
2023-04-07T09:39:54.588Z,11.80
2023-04-07T09:42:23.334Z,11.70
2023-04-07T09:44:52.655Z,11.30
2023-04-07T09:47:29.821Z,11.40
2023-04-07T09:49:59.897Z,11.40
2023-04-07T09:52:51.829Z,11.50
2023-04-07T09:55:22.874Z,11.50
2023-04-07T09:57:52.521Z,11.60
2023-04-07T10:00:21.232Z,11.70
2023-04-07T10:02:51.415Z,11.60
2023-04-07T10:05:21.747Z,11.50
2023-04-07T10:07:52.555Z,11.40
2023-04-07T10:10:21.512Z,11.80
2023-04-07T10:12:54.865Z,12.10
2023-04-07T10:15:24.746Z,12.40
2023-04-07T10:17:56.897Z,12.70
2023-04-07T10:20:26.912Z,12.70
2023-04-07T10:23:05.943Z,12.90
2023-04-07T10:25:36.508Z,13.30
2023-04-07T10:28:11.906Z,13.50
2023-04-07T10:30:41.779Z,13.90
2023-04-07T10:33:10.544Z,14.30
2023-04-07T10:36:08.399Z,14.50
2023-04-07T10:38:38.372Z,14.40
2023-04-07T10:41:35.771Z,14.30
2023-04-07T10:44:06.210Z,14.50
2023-04-07T10:47:06.251Z,14.80
2023-04-07T10:49:35.796Z,14.20
2023-04-07T10:52:24.439Z,14.50
2023-04-07T10:55:32.540Z,14.60
2023-04-07T10:58:24.317Z,15.20
2023-04-07T11:01:21.946Z,14.90
2023-04-07T11:04:11.467Z,14.50
2023-04-07T11:06:48.956Z,14.70
2023-04-07T11:09:21.578Z,15.40
2023-04-07T11:11:52.291Z,15.60
2023-04-07T11:14:28.277Z,15.90
2023-04-07T11:16:57.466Z,15.50
2023-04-07T11:19:26.716Z,15.20
2023-04-07T11:22:28.632Z,14.90
2023-04-07T11:24:58.170Z,14.90
2023-04-07T11:27:28.596Z,14.60
2023-04-07T11:29:58.089Z,14.10
2023-04-07T11:32:29.842Z,14.00
2023-04-07T11:34:59.201Z,14.10
2023-04-07T11:37:29.088Z,13.70
2023-04-07T11:39:59.963Z,13.50
2023-04-07T11:42:37.516Z,13.40
2023-04-07T11:45:08.378Z,13.30
2023-04-07T11:47:38.216Z,13.40
2023-04-07T11:50:08.443Z,12.90
2023-04-07T11:52:43.262Z,12.50
2023-04-07T11:55:21.977Z,12.40
2023-04-07T11:57:52.770Z,12.20
2023-04-07T12:00:22.533Z,12.10
2023-04-07T12:02:51.555Z,12.00
2023-04-07T12:05:20.181Z,11.90
2023-04-07T12:07:57.953Z,11.80
2023-04-07T12:10:27.492Z,11.70
2023-04-07T12:12:59.436Z,11.60
2023-04-07T12:17:57.180Z,11.50
2023-04-07T12:20:25.641Z,11.60
2023-04-07T12:22:54.244Z,11.60
2023-04-07T12:25:22.856Z,11.60
2023-04-07T12:27:51.498Z,11.60
2023-04-07T12:30:21.510Z,11.70
2023-04-07T12:32:50.050Z,11.50
2023-04-07T12:35:18.667Z,11.10
2023-04-07T12:37:49.916Z,11.80
2023-04-07T12:40:19.179Z,12.10
2023-04-07T12:42:48.128Z,12.40
2023-04-07T12:45:16.516Z,12.60
2023-04-07T12:47:47.405Z,12.60
2023-04-07T12:50:16.094Z,10.20
2023-04-07T12:52:44.444Z,12.70
2023-04-07T12:55:14.289Z,12.80
2023-04-07T12:57:42.682Z,12.90
2023-04-07T13:00:13.038Z,13.00
2023-04-07T13:02:42.237Z,13.10
2023-04-07T13:05:12.887Z,13.30
2023-04-07T13:07:41.477Z,13.20
2023-04-07T13:10:11.442Z,13.30
2023-04-07T13:12:41.334Z,13.60
2023-04-07T13:15:10.277Z,13.70
2023-04-07T13:17:38.788Z,13.70
2023-04-07T13:20:10.910Z,13.50
2023-04-07T13:22:49.222Z,13.60
2023-04-07T13:27:53.253Z,13.60
2023-04-07T13:30:22.826Z,13.60
2023-04-07T13:32:52.293Z,13.70
2023-04-07T13:35:21.491Z,13.90
2023-04-07T13:37:51.324Z,14.00
2023-04-07T13:42:49.356Z,13.60
2023-04-07T13:45:17.926Z,13.40
2023-04-07T13:47:46.623Z,13.40
2023-04-07T13:50:16.017Z,13.50
2023-04-07T13:52:44.637Z,13.30
2023-04-07T13:55:16.063Z,13.20
2023-04-07T14:00:15.408Z,13.10
2023-04-07T14:02:45.993Z,12.90
2023-04-07T14:05:14.511Z,12.90
2023-04-07T14:07:42.932Z,12.90
2023-04-07T14:10:12.963Z,12.70
2023-04-07T14:12:41.450Z,12.60
2023-04-07T14:15:11.272Z,12.40
2023-04-07T14:17:40.158Z,12.50
2023-04-07T14:20:10.155Z,12.40
2023-04-07T14:22:38.620Z,12.20
2023-04-07T14:25:08.509Z,12.30
2023-04-07T14:27:38.316Z,12.30
2023-04-07T14:30:08.705Z,12.30
2023-04-07T14:32:37.090Z,12.30
2023-04-07T14:35:06.207Z,12.30
2023-04-07T14:37:36.041Z,12.30
2023-04-07T14:40:05.161Z,12.20
2023-04-07T14:42:34.310Z,12.30
2023-04-07T14:45:04.554Z,12.40
2023-04-07T14:47:33.109Z,12.20
2023-04-07T14:50:01.879Z,12.30
2023-04-07T14:52:30.436Z,12.20
2023-04-07T14:55:00.281Z,11.40
2023-04-07T14:57:28.923Z,12.00
2023-04-07T14:59:57.376Z,12.00
2023-04-07T15:02:28.799Z,12.10
2023-04-07T15:04:58.220Z,12.00
2023-04-07T15:07:26.784Z,11.90
2023-04-07T15:09:55.414Z,11.70
2023-04-07T15:12:24.012Z,11.80
2023-04-07T15:14:53.454Z,11.80
2023-04-07T15:17:33.048Z,11.80
2023-04-07T15:20:13.006Z,11.80
2023-04-07T15:22:42.250Z,11.80
2023-04-07T15:27:39.411Z,11.80
2023-04-07T15:30:09.977Z,11.80
2023-04-07T15:32:38.422Z,11.80
2023-04-07T15:35:09.893Z,11.70
2023-04-07T15:37:38.687Z,11.60
2023-04-07T15:40:09.182Z,11.50
2023-04-07T15:42:41.728Z,11.50
2023-04-07T15:45:12.056Z,11.40
2023-04-07T15:47:40.422Z,11.40
2023-04-07T15:50:12.163Z,11.30
2023-04-07T15:52:40.577Z,11.20
2023-04-07T15:55:10.192Z,11.10
2023-04-07T16:00:09.485Z,11.00
2023-04-07T16:02:38.569Z,10.90
2023-04-07T16:05:09.269Z,10.90
2023-04-07T16:07:37.720Z,10.80
2023-04-07T16:10:08.415Z,10.80
2023-04-07T16:12:37.944Z,10.80
2023-04-07T16:15:09.874Z,10.80
2023-04-07T16:17:40.362Z,10.80
2023-04-07T16:20:14.580Z,10.80
2023-04-07T16:22:43.868Z,11.00
2023-04-07T16:25:13.005Z,11.10
2023-04-07T16:27:41.388Z,11.30
2023-04-07T16:30:11.245Z,11.40
2023-04-07T16:32:39.728Z,11.30
2023-04-07T16:35:11.708Z,11.20
2023-04-07T16:37:42.258Z,11.00
2023-04-07T16:40:12.101Z,10.90
2023-04-07T16:42:40.972Z,10.80
2023-04-07T16:45:10.648Z,9.10
2023-04-07T16:47:44.196Z,10.60
2023-04-07T16:50:14.358Z,10.50
2023-04-07T16:52:42.714Z,10.50
2023-04-07T16:55:12.251Z,10.10
2023-04-07T16:57:40.558Z,10.30
2023-04-07T17:00:10.514Z,10.30
2023-04-07T17:02:39.204Z,10.20
2023-04-07T17:05:09.309Z,10.00
2023-04-07T17:07:39.189Z,10.00
2023-04-07T17:10:09.267Z,9.90
2023-04-07T17:12:37.608Z,9.80
2023-04-07T17:15:06.857Z,9.70
2023-04-07T17:17:35.758Z,9.60
2023-04-07T17:20:04.852Z,9.50
2023-04-07T17:22:33.576Z,9.30
2023-04-07T17:25:03.305Z,9.20
2023-04-07T17:27:31.653Z,8.90
2023-04-07T17:30:00.608Z,8.70
2023-04-07T17:32:29.043Z,8.50
2023-04-07T17:34:57.733Z,6.00
2023-04-07T17:37:26.506Z,8.10
2023-04-07T17:39:54.878Z,7.90
2023-04-07T17:42:24.922Z,7.70
2023-04-07T17:44:54.635Z,7.50
2023-04-07T17:47:23.118Z,7.30
2023-04-07T17:49:51.617Z,7.10
2023-04-07T17:52:20.147Z,6.80
2023-04-07T17:54:49.039Z,6.90
2023-04-07T17:57:17.442Z,6.80
2023-04-07T17:59:49.051Z,6.70
2023-04-07T18:02:17.960Z,6.70
2023-04-07T18:07:15.696Z,6.40
2023-04-07T18:09:45.049Z,5.90
2023-04-07T18:12:13.501Z,6.30
2023-04-07T18:14:41.933Z,6.30
2023-04-07T18:17:11.966Z,6.30
2023-04-07T18:19:40.525Z,6.10
2023-04-07T18:22:09.884Z,6.40
2023-04-07T18:24:38.303Z,6.40
2023-04-07T18:29:35.577Z,6.50
2023-04-07T18:32:04.016Z,6.50
2023-04-07T18:34:34.792Z,6.60
2023-04-07T18:37:03.129Z,6.60
2023-04-07T18:39:31.560Z,6.60
2023-04-07T18:41:59.997Z,6.90
2023-04-07T18:44:28.467Z,6.60
2023-04-07T18:49:27.903Z,6.50
2023-04-07T18:51:58.557Z,6.50
2023-04-07T18:54:28.552Z,6.50
2023-04-07T18:57:00.436Z,6.10
2023-04-07T18:59:29.173Z,6.40
2023-04-07T19:01:57.731Z,6.30
2023-04-07T19:04:26.261Z,6.30
2023-04-07T19:06:55.853Z,6.10
2023-04-07T19:09:25.995Z,6.00
2023-04-07T19:11:54.488Z,6.20
2023-04-07T19:14:22.858Z,6.10
2023-04-07T19:16:53.025Z,6.00
2023-04-07T19:19:21.491Z,6.00
2023-04-07T19:21:49.871Z,6.00
2023-04-07T19:26:48.703Z,6.10
2023-04-07T19:29:17.458Z,6.00
2023-04-07T19:31:45.814Z,6.10
2023-04-07T19:34:14.188Z,6.10
2023-04-07T19:36:42.608Z,6.10
2023-04-07T19:39:11.007Z,6.10
2023-04-07T19:41:39.779Z,6.10
2023-04-07T19:44:09.733Z,6.10
2023-04-07T19:46:38.325Z,6.10
2023-04-07T19:49:06.723Z,6.20
2023-04-07T19:51:35.328Z,6.20
2023-04-07T19:54:04.120Z,6.20
2023-04-07T19:56:32.467Z,6.20
2023-04-07T20:01:31.070Z,6.20
2023-04-07T20:03:59.684Z,6.20
2023-04-07T20:06:29.041Z,6.20
2023-04-07T20:08:58.722Z,6.10
2023-04-07T20:11:27.130Z,6.10
2023-04-07T20:13:56.024Z,6.00
2023-04-07T20:16:24.648Z,6.00
2023-04-07T20:18:55.193Z,6.00
2023-04-07T20:21:24.393Z,5.90
2023-04-07T20:23:52.960Z,5.90
2023-04-07T20:26:22.129Z,5.80
2023-04-07T20:28:51.070Z,5.90
2023-04-07T20:31:19.667Z,5.90
2023-04-07T20:33:48.552Z,5.90
2023-04-07T20:36:19.599Z,5.80
2023-04-07T20:38:49.162Z,5.90
2023-04-07T20:41:18.206Z,5.80
2023-04-07T20:43:46.680Z,5.70
2023-04-07T20:48:44.198Z,5.70
2023-04-07T20:51:12.678Z,5.60
2023-04-07T20:53:42.627Z,5.60
2023-04-07T20:56:11.887Z,5.60
2023-04-07T20:58:40.451Z,5.50
2023-04-07T21:01:09.821Z,5.50
2023-04-07T21:03:38.664Z,5.40
2023-04-07T21:06:07.820Z,5.40
2023-04-07T21:08:36.304Z,5.40
2023-04-07T21:11:06.119Z,5.40
2023-04-07T21:13:34.519Z,5.30
2023-04-07T21:16:04.889Z,5.40
2023-04-07T21:18:33.358Z,5.40
2023-04-07T21:21:03.073Z,5.30
2023-04-07T21:26:05.438Z,5.40
2023-04-07T21:28:33.817Z,5.40
2023-04-07T21:31:02.269Z,5.40
2023-04-07T21:33:30.789Z,5.40
2023-04-07T21:36:00.923Z,5.40
2023-04-07T21:38:29.931Z,5.40
2023-04-07T21:40:58.629Z,5.50
2023-04-07T21:43:29.477Z,5.50
2023-04-07T21:45:57.804Z,6.40
2023-04-07T21:48:26.634Z,5.50
2023-04-07T21:55:53.272Z,5.60
2023-04-07T21:58:23.535Z,5.60
2023-04-07T22:00:54.563Z,5.60
2023-04-07T22:03:23.834Z,5.50
2023-04-07T22:05:52.720Z,5.50
2023-04-07T22:08:21.426Z,5.50
2023-04-07T22:10:49.855Z,5.50
2023-04-07T22:13:18.801Z,5.50
2023-04-07T22:15:47.299Z,5.50
2023-04-07T22:18:17.200Z,5.40
2023-04-07T22:23:14.369Z,5.50
2023-04-07T22:30:40.933Z,5.30
2023-04-07T22:33:10.651Z,5.30
2023-04-07T22:35:40.499Z,5.20
2023-04-07T22:38:09.019Z,5.10
2023-04-07T22:40:37.881Z,5.00
2023-04-07T22:43:06.331Z,5.00
2023-04-07T22:45:35.528Z,4.90
2023-04-07T22:48:04.068Z,4.80
2023-04-07T22:50:32.610Z,4.80
2023-04-07T22:53:02.503Z,4.80
2023-04-07T22:55:30.914Z,4.80
2023-04-07T22:57:59.401Z,4.80
2023-04-07T23:00:28.196Z,4.80
2023-04-07T23:02:57.111Z,4.70
2023-04-07T23:05:25.716Z,4.70
2023-04-07T23:07:55.915Z,4.70
2023-04-07T23:10:25.970Z,4.70
2023-04-07T23:12:55.599Z,4.80
2023-04-07T23:15:24.076Z,4.70
2023-04-07T23:17:52.642Z,4.70
2023-04-07T23:25:19.652Z,4.60
2023-04-07T23:27:49.678Z,4.60
2023-04-07T23:30:18.500Z,4.60
2023-04-07T23:32:47.271Z,4.50
2023-04-07T23:35:15.957Z,4.50
2023-04-07T23:37:44.408Z,4.50
2023-04-07T23:40:14.310Z,5.20
2023-04-07T23:42:42.998Z,4.50
2023-04-07T23:45:13.798Z,4.40
2023-04-07T23:47:42.120Z,5.10
2023-04-07T23:50:11.577Z,4.40
2023-04-07T23:52:39.984Z,4.30
2023-04-07T23:55:10.084Z,4.20
2023-04-07T23:57:38.472Z,4.20
